Terminal Aerodrome Forecast
Issued by NWS

Home | Current Version | Previous Version | Text Only | Print | Product List | Glossary On
Versions: 1 2 3 4 5 6 7 8 9 10 11 12
000
FTUS45 KRIW 092300
TAFRKS
TAF
KRKS 092320Z 1000/1024 27012G18KT P6SM VCTS FEW090CB SCT120
     FM100400 24008KT P6SM VCSH SCT100 BKN150
     FM101900 VRB15G25KT P6SM VCTS SCT080CB BKN150=

USA.gov is the U.S. government's official web portal to all federal, state and local government web resources and services.